»·PEaware :: SKW5622 KSNA-KSFO

SKW5622 :: KSNA-KSFO

FLIGHT INFORMATION

Flight Status: Arrived
Operator:
SkyWest Airlines
More flights by this operator :: More flights under this callsign
Pilot: Anonymous 12254 (12254)
Aircraft: EMBRAER EMB-170/175
(E170)
More flights by this aircraft type
Origin: KSNA John Wayne-Orange Co
United States
Destination: KSFO San Francisco Intl
United States
More flights between these airports :: More routes between these airports
Route: HHERO3 IKAYE RIZIN SPLNT STOKD SERFR SERFR4
File this flight plan on PilotEdge
Remarks:
Altitude:
(Current/Filed)
36,000ft
Speed:
(Current/Filed)
450kts
Departed: 25-Jan-22 03:16 PM
Arrived: 25-Jan-22 04:24 PM
Distance/Time
Traveled:
323nm/1:08
Distance/Time
To Go:
Arrived

Flight Plot

Page will automatically refresh every two minutes.

Flight plan parsing failed; only flown route is shown


Map Options




Map Legend


Flown Route
Filed Route
Departure Airport
Arrival Airport
Navaid (VOR, NDB)
Fix

Horizontal Profiles

Position Reports

Time Latitude Longitude Heading Altitude Ground
Speed
25-Jan-22 15:02 33.675366 -117.864867 119 64ft 0kts
25-Jan-22 15:03 33.675366 -117.864867 119 64ft 0kts
25-Jan-22 15:04 33.675366 -117.864867 119 64ft 0kts
25-Jan-22 15:05 33.675366 -117.864867 119 64ft 0kts
25-Jan-22 15:06 33.675366 -117.864867 119 64ft 0kts
25-Jan-22 15:07 33.675366 -117.864867 119 64ft 0kts
25-Jan-22 15:08 33.675366 -117.864867 119 64ft 0kts
25-Jan-22 15:09 33.675366 -117.864867 119 64ft 0kts
25-Jan-22 15:10 33.675410 -117.865575 28 64ft 0kts
25-Jan-22 15:11 33.675411 -117.865574 28 64ft 0kts
25-Jan-22 15:12 33.679535 -117.863033 28 64ft 18kts
25-Jan-22 15:13 33.680625 -117.863053 296 64ft 0kts
25-Jan-22 15:14 33.680989 -117.865500 205 64ft 12kts
25-Jan-22 15:15 33.635893 -117.887933 186 1078ft 235kts
25-Jan-22 15:16 33.570804 -117.902700 213 2531ft 248kts
25-Jan-22 15:17 33.516861 -117.961061 223 4212ft 253kts
25-Jan-22 15:18 33.469103 -118.025626 239 5925ft 265kts
25-Jan-22 15:19 33.431248 -118.102506 240 7800ft 273kts
25-Jan-22 15:20 33.417968 -118.188906 283 9830ft 302kts
25-Jan-22 15:21 33.439907 -118.298569 293 11855ft 347kts
25-Jan-22 15:22 33.484048 -118.402201 298 13869ft 354kts
25-Jan-22 15:23 33.533002 -118.505469 307 15865ft 360kts
25-Jan-22 15:24 33.594466 -118.601744 308 17860ft 368kts
25-Jan-22 15:25 33.657645 -118.700115 310 19858ft 377kts
25-Jan-22 15:26 33.748765 -118.764173 330 21859ft 387kts
25-Jan-22 15:27 33.845385 -118.824289 330 23862ft 398kts
25-Jan-22 15:28 33.935160 -118.880233 330 25669ft 409kts
25-Jan-22 15:29 34.037326 -118.944028 330 27662ft 422kts
25-Jan-22 15:30 34.140632 -119.014875 312 29637ft 433kts
25-Jan-22 15:31 34.208635 -119.137349 301 31667ft 447kts
25-Jan-22 15:32 34.274600 -119.265556 300 33659ft 447kts
25-Jan-22 15:33 34.339775 -119.392816 300 35124ft 444kts
25-Jan-22 15:34 34.404530 -119.519525 301 36022ft 447kts
25-Jan-22 15:35 34.490096 -119.629567 312 36019ft 446kts
25-Jan-22 15:36 34.576674 -119.736224 312 36027ft 445kts
25-Jan-22 15:37 34.663328 -119.843347 312 36026ft 445kts
25-Jan-22 15:38 34.750038 -119.950870 312 36024ft 445kts
25-Jan-22 15:39 34.836301 -120.058195 312 36027ft 446kts
25-Jan-22 15:40 34.922728 -120.166151 313 36023ft 445kts
25-Jan-22 15:41 35.009306 -120.274517 315 36025ft 451kts
25-Jan-22 15:42 35.097699 -120.383976 318 36018ft 454kts
25-Jan-22 15:43 35.190660 -120.488116 318 36004ft 455kts
25-Jan-22 15:44 35.283531 -120.592458 318 36002ft 454kts
25-Jan-22 15:45 35.376270 -120.696964 318 36001ft 454kts
25-Jan-22 15:46 35.469121 -120.801961 318 36028ft 454kts
25-Jan-22 15:47 35.568450 -120.896978 323 35731ft 452kts
25-Jan-22 15:48 35.667883 -120.989415 323 35214ft 449kts
25-Jan-22 15:49 35.767574 -121.082382 323 34707ft 451kts
25-Jan-22 15:50 35.867312 -121.175686 323 34149ft 452kts
25-Jan-22 15:51 35.966953 -121.269215 323 33338ft 449kts
25-Jan-22 15:52 36.064518 -121.361071 324 31581ft 435kts
25-Jan-22 15:53 36.165777 -121.440635 328 29551ft 420kts
25-Jan-22 15:54 36.262342 -121.516136 328 27560ft 405kts
25-Jan-22 15:55 36.355808 -121.589394 328 25556ft 392kts
25-Jan-22 15:56 36.445998 -121.660323 328 23551ft 378kts
25-Jan-22 15:57 36.533354 -121.729212 328 21540ft 366kts
25-Jan-22 15:58 36.617590 -121.795858 328 19533ft 354kts
25-Jan-22 15:59 36.698771 -121.860252 328 17531ft 342kts
25-Jan-22 16:00 36.783322 -121.905603 347 15522ft 330kts
25-Jan-22 16:01 36.871192 -121.930390 347 13435ft 319kts
25-Jan-22 16:02 36.955825 -121.954744 342 11211ft 306kts
25-Jan-22 16:03 37.029285 -121.983265 343 9045ft 260kts
25-Jan-22 16:04 37.097586 -122.009911 344 8086ft 254kts
25-Jan-22 16:05 37.165337 -122.036391 344 8074ft 255kts
25-Jan-22 16:06 37.233101 -122.062938 344 8075ft 254kts
25-Jan-22 16:07 37.300431 -122.089385 344 7633ft 254kts
25-Jan-22 16:08 37.366741 -122.115526 343 6159ft 246kts
25-Jan-22 16:09 37.419488 -122.170100 320 4773ft 243kts
25-Jan-22 16:10 37.467178 -122.223124 320 3469ft 214kts
25-Jan-22 16:11 37.509047 -122.268888 320 3223ft 194kts
25-Jan-22 16:12 37.530890 -122.323069 234 4208ft 216kts
25-Jan-22 16:13 37.486112 -122.296181 112 4165ft 221kts
25-Jan-22 16:14 37.459455 -122.226751 112 4122ft 220kts
25-Jan-22 16:15 37.432860 -122.157345 112 4114ft 219kts
25-Jan-22 16:16 37.452416 -122.103968 22 3967ft 203kts
25-Jan-22 16:17 37.505011 -122.095894 333 2299ft 200kts
25-Jan-22 16:19 37.530928 -122.146849 270 1486ft 186kts
25-Jan-22 16:20 37.547190 -122.196973 297 1406ft 139kts
25-Jan-22 16:21 37.564418 -122.247708 296 1644ft 213kts
25-Jan-22 16:22 37.594129 -122.316633 300 898ft 209kts
25-Jan-22 16:23 37.616378 -122.369356 297 17ft 122kts
25-Jan-22 16:24 37.621302 -122.383162 193 31ft 0kts
25-Jan-22 16:25 37.619593 -122.383638 209 31ft 0kts
25-Jan-22 16:26 37.619593 -122.383638 209 31ft 0kts
25-Jan-22 16:27 37.619593 -122.383638 209 31ft 0kts
25-Jan-22 16:28 37.619593 -122.383638 209 31ft 0kts
25-Jan-22 16:29 37.619593 -122.383638 209 31ft 0kts
25-Jan-22 16:30 37.619593 -122.383638 209 31ft 0kts
25-Jan-22 16:31 37.619593 -122.383638 209 31ft 0kts
25-Jan-22 16:32 37.619593 -122.383638 209 31ft 0kts
25-Jan-22 16:33 37.618920 -122.383359 249 31ft 4kts
25-Jan-22 16:34 37.618984 -122.383725 298 31ft 0kts
25-Jan-22 16:35 37.618984 -122.383725 298 31ft 0kts
25-Jan-22 16:36 37.618984 -122.383725 298 31ft 0kts

Navigation Log

Ident Type
Flight plan parsing failed, navigation log unavailable